Terminal Aerodrome Forecast
Issued by NWS

Home | Current Version | Previous Version | Text Only | Print | Product List | Glossary Off
Versions: 1 2 3 4 5 6 7 8 9 10 11 12 13 14 15 16 17 18

894
FTUS43 KABR 080416 AAB
TAFMBG
TAF AMD
KMBG 080416Z 0804/0824 33029G44KT P6SM OVC050
     FM080900 33023G28KT P6SM SCT050
     FM081600 33020G30KT P6SM BKN250=

USA.gov is the U.S. government's official web portal to all federal, state and local government web resources and services.